Time;durP1;ratioP1;P1;durP2;ratioP2;P2;SDS_P1;SDS_P2;PMS_P1;PMS_P2;Temp;Humidity;BMP_temperature;BMP_pressure;BME280_temperature;BME280_humidity;BME280_pressure;Samples;Min_cycle;Max_cycle;Signal;HPM_P1;HPM_P2
2023/06/06 00:03:12;;;;;;;7.25;4.43;;;13.80;99.90;;;;;;7336526;32;20244;-55
2023/06/06 00:07:14;;;;;;;7.47;4.30;;;13.80;99.90;;;;;;7334175;32;20450;-55
2023/06/06 00:11:31;;;;;;;8.07;4.32;;;13.80;99.90;;;;;;7336449;32;20139;-56
2023/06/06 00:15:32;;;;;;;7.60;4.78;;;13.80;99.90;;;;;;7332485;32;20115;-56
2023/06/06 00:19:35;;;;;;;11.43;5.00;;;13.90;99.90;;;;;;7335246;32;20099;-55
2023/06/06 00:23:37;;;;;;;7.20;4.97;;;13.90;99.90;;;;;;7326740;32;20651;-57
2023/06/06 00:27:39;;;;;;;5.57;4.68;;;13.90;99.90;;;;;;7330945;32;20207;-56
2023/06/06 00:31:41;;;;;;;8.98;5.25;;;14.00;99.90;;;;;;7321409;32;20162;-55
2023/06/06 00:35:42;;;;;;;10.15;5.18;;;13.90;99.90;;;;;;7335143;32;20632;-55
2023/06/06 00:39:44;;;;;;;9.75;5.03;;;13.90;99.90;;;;;;7329127;32;20623;-55
2023/06/06 00:43:46;;;;;;;10.52;5.25;;;13.80;99.90;;;;;;7334416;32;20142;-55
2023/06/06 00:47:48;;;;;;;8.30;5.07;;;13.80;99.90;;;;;;7329306;32;20134;-55
2023/06/06 00:51:50;;;;;;;8.60;5.47;;;13.70;99.90;;;;;;7334745;32;20467;-56
2023/06/06 00:55:52;;;;;;;9.32;5.35;;;13.70;99.90;;;;;;7329963;32;20214;-56
2023/06/06 00:59:55;;;;;;;10.38;5.37;;;13.70;99.90;;;;;;7333324;32;20253;-56
2023/06/06 01:04:00;;;;;;;10.10;6.18;;;13.70;99.90;;;;;;7332428;32;20263;-55
2023/06/06 01:08:02;;;;;;;8.02;5.70;;;13.70;99.90;;;;;;7331669;32;20225;-55
2023/06/06 01:12:28;;;;;;;8.20;5.35;;;13.60;99.90;;;;;;7333213;32;20546;-55
2023/06/06 01:16:33;;;;;;;10.18;5.90;;;13.60;99.90;;;;;;7330219;32;20107;-56
2023/06/06 01:20:36;;;;;;;11.85;6.12;;;13.70;99.90;;;;;;7327424;32;20549;-56
2023/06/06 01:24:38;;;;;;;9.27;5.80;;;13.80;99.90;;;;;;7327519;32;20660;-56
2023/06/06 01:28:40;;;;;;;10.25;6.32;;;13.80;99.90;;;;;;7326038;32;20688;-55
2023/06/06 01:33:12;;;;;;;8.68;6.28;;;13.70;99.90;;;;;;7328691;32;20233;-57
2023/06/06 01:37:29;;;;;;;9.45;6.25;;;13.60;99.90;;;;;;7322936;32;20574;-56
2023/06/06 01:41:35;;;;;;;11.57;6.30;;;13.60;99.90;;;;;;7336237;32;20126;-55
2023/06/06 01:45:39;;;;;;;11.00;6.10;;;13.60;99.90;;;;;;7340373;32;20146;-56
2023/06/06 01:49:44;;;;;;;9.10;6.32;;;13.60;99.90;;;;;;7341189;32;20138;-56
2023/06/06 01:53:46;;;;;;;9.77;6.70;;;13.60;99.90;;;;;;7339480;32;20439;-55
2023/06/06 01:57:48;;;;;;;11.75;6.65;;;13.60;99.90;;;;;;7337198;32;20670;-56
2023/06/06 02:01:50;;;;;;;11.00;6.93;;;13.60;99.90;;;;;;7332467;32;20111;-56
2023/06/06 02:05:52;;;;;;;10.50;6.32;;;13.70;99.90;;;;;;7336009;32;20247;-55
2023/06/06 02:09:54;;;;;;;11.27;6.78;;;13.70;99.90;;;;;;7331986;32;20105;-55
2023/06/06 02:13:59;;;;;;;10.52;5.97;;;13.60;99.90;;;;;;7336367;32;20111;-56
2023/06/06 02:18:01;;;;;;;12.18;7.07;;;13.60;99.90;;;;;;7335808;32;20328;-56
2023/06/06 02:22:03;;;;;;;10.27;7.18;;;13.50;99.90;;;;;;7335841;32;20801;-55
2023/06/06 02:26:05;;;;;;;13.90;6.75;;;13.50;99.90;;;;;;7331609;32;20641;-55
2023/06/06 02:30:07;;;;;;;11.25;6.90;;;13.60;99.90;;;;;;7337900;32;20131;-56
2023/06/06 02:34:09;;;;;;;9.27;6.72;;;13.50;99.90;;;;;;7324438;32;20095;-56
2023/06/06 02:38:11;;;;;;;10.50;7.47;;;13.40;99.90;;;;;;7333669;32;20127;-55
2023/06/06 02:42:13;;;;;;;11.23;7.50;;;13.30;99.90;;;;;;7340501;32;20111;-55
2023/06/06 02:46:15;;;;;;;13.07;7.30;;;13.20;99.90;;;;;;7340674;32;20159;-55
2023/06/06 02:50:19;;;;;;;11.20;6.80;;;13.20;99.90;;;;;;7341029;32;20514;-55
2023/06/06 02:54:21;;;;;;;8.73;6.78;;;13.10;99.90;;;;;;7334912;32;20127;-56
2023/06/06 02:58:30;;;;;;;12.52;7.55;;;13.10;99.90;;;;;;7339069;32;20241;-55
2023/06/06 03:02:31;;;;;;;10.70;6.78;;;13.10;99.90;;;;;;7334819;32;20117;-55
2023/06/06 03:06:36;;;;;;;11.35;7.43;;;13.00;99.90;;;;;;7337460;32;20473;-54
2023/06/06 03:10:38;;;;;;;12.82;7.10;;;13.00;99.90;;;;;;7330516;32;20277;-56
2023/06/06 03:14:40;;;;;;;14.55;7.70;;;13.00;99.90;;;;;;7334205;32;20600;-55
2023/06/06 03:18:58;;;;;;;13.32;7.62;;;12.90;99.90;;;;;;7339520;32;20099;-56
2023/06/06 03:23:00;;;;;;;13.23;7.87;;;12.90;99.90;;;;;;7329603;32;20150;-55
2023/06/06 03:27:03;;;;;;;11.35;7.85;;;13.00;99.90;;;;;;7335110;32;20143;-55
2023/06/06 03:31:07;;;;;;;11.45;8.75;;;12.90;99.90;;;;;;7336104;32;20121;-55
2023/06/06 03:35:09;;;;;;;15.32;8.23;;;12.80;99.90;;;;;;7329510;32;20131;-55
2023/06/06 03:39:11;;;;;;;13.52;8.35;;;12.90;99.90;;;;;;7340488;32;20127;-55
2023/06/06 03:43:13;;;;;;;11.52;7.85;;;12.90;99.90;;;;;;7331894;32;20515;-55
2023/06/06 03:47:15;;;;;;;12.10;7.68;;;12.90;99.90;;;;;;7337117;32;20103;-54
2023/06/06 03:51:17;;;;;;;12.82;7.32;;;12.90;99.90;;;;;;7317984;32;20305;-55
2023/06/06 03:55:18;;;;;;;12.48;8.07;;;12.90;99.90;;;;;;7338626;32;20135;-55
2023/06/06 03:59:20;;;;;;;12.02;7.30;;;12.80;99.90;;;;;;7337826;32;20135;-54
2023/06/06 04:03:22;;;;;;;9.52;7.37;;;12.80;99.90;;;;;;7333865;32;20256;-54
2023/06/06 04:07:28;;;;;;;11.45;7.80;;;12.80;99.90;;;;;;7334097;32;20107;-55
2023/06/06 04:11:29;;;;;;;11.52;8.18;;;12.90;99.90;;;;;;7330051;32;20147;-55
2023/06/06 04:15:31;;;;;;;12.23;8.07;;;12.80;99.90;;;;;;7330919;32;20175;-55
2023/06/06 04:19:33;;;;;;;13.10;7.75;;;12.80;99.90;;;;;;7336595;32;20254;-55
2023/06/06 04:23:35;;;;;;;13.82;8.77;;;12.80;99.90;;;;;;7335299;32;20226;-54
2023/06/06 04:27:40;;;;;;;11.30;7.55;;;12.90;99.90;;;;;;7337595;32;20850;-54
2023/06/06 04:31:44;;;;;;;11.30;8.38;;;12.90;99.90;;;;;;7324397;32;20668;-55
2023/06/06 04:35:49;;;;;;;14.52;7.57;;;13.10;99.90;;;;;;7328012;32;20126;-56
2023/06/06 04:39:53;;;;;;;13.23;8.45;;;13.30;99.90;;;;;;7336680;32;20249;-55
2023/06/06 04:43:56;;;;;;;12.32;8.52;;;13.60;99.90;;;;;;7335070;32;20632;-55
2023/06/06 04:47:59;;;;;;;13.62;8.07;;;13.70;99.90;;;;;;7337417;32;20111;-56
2023/06/06 04:52:05;;;;;;;14.20;7.90;;;13.80;99.90;;;;;;7334767;32;20582;-55
2023/06/06 04:56:07;;;;;;;11.90;8.02;;;14.10;99.90;;;;;;7337241;32;20263;-56
2023/06/06 05:00:12;;;;;;;12.18;7.97;;;14.50;99.90;;;;;;7337575;32;20108;-56
2023/06/06 05:04:15;;;;;;;14.73;9.13;;;15.00;99.90;;;;;;7338711;32;20181;-56
2023/06/06 05:08:17;;;;;;;10.60;7.72;;;15.20;99.90;;;;;;7331028;32;21543;-56
2023/06/06 05:12:22;;;;;;;12.90;7.47;;;15.50;99.90;;;;;;7334749;32;20579;-58
2023/06/06 05:16:25;;;;;;;13.13;7.45;;;15.80;99.90;;;;;;7341210;32;20253;-56
2023/06/06 05:20:26;;;;;;;28.10;22.33;;;16.40;99.90;;;;;;7343760;32;20173;-57
2023/06/06 05:24:28;;;;;;;14.55;7.82;;;16.60;99.90;;;;;;7338617;32;20111;-56
2023/06/06 05:28:30;;;;;;;12.15;7.65;;;16.60;99.90;;;;;;7345167;32;20127;-56
2023/06/06 05:32:31;;;;;;;12.20;7.47;;;16.90;99.90;;;;;;7343182;32;20190;-56
2023/06/06 05:36:33;;;;;;;12.88;7.70;;;16.80;99.90;;;;;;7343105;32;20107;-55
2023/06/06 05:40:35;;;;;;;10.32;7.32;;;17.30;99.90;;;;;;7332106;32;20184;-56
2023/06/06 05:44:37;;;;;;;12.35;7.18;;;18.00;99.90;;;;;;7336873;32;20108;-57
2023/06/06 05:48:39;;;;;;;18.83;12.43;;;18.30;99.90;;;;;;7336597;32;20130;-57
2023/06/06 05:52:41;;;;;;;12.13;7.78;;;18.20;99.90;;;;;;7343465;32;20229;-57
2023/06/06 05:56:43;;;;;;;11.57;7.90;;;18.70;99.90;;;;;;7342992;32;20689;-57
2023/06/06 06:00:45;;;;;;;15.25;8.55;;;18.80;99.90;;;;;;7342167;32;20294;-57
2023/06/06 06:04:52;;;;;;;12.27;7.37;;;18.10;99.90;;;;;;7344182;32;20122;-57
2023/06/06 06:08:57;;;;;;;11.75;8.20;;;18.90;99.90;;;;;;7337793;32;20107;-57
2023/06/06 06:13:00;;;;;;;13.05;8.38;;;18.60;99.90;;;;;;7345803;32;20102;-57
2023/06/06 06:17:02;;;;;;;17.02;8.15;;;18.30;99.90;;;;;;7335105;32;20478;-57
2023/06/06 06:21:04;;;;;;;13.43;8.55;;;18.70;99.90;;;;;;7337408;32;20311;-56
2023/06/06 06:25:12;;;;;;;11.10;7.90;;;19.00;99.90;;;;;;7342322;32;20119;-56
2023/06/06 06:29:14;;;;;;;12.40;8.05;;;19.20;99.90;;;;;;7336361;32;20099;-57
2023/06/06 06:33:16;;;;;;;12.80;7.75;;;19.70;99.90;;;;;;7346852;32;20915;-57
2023/06/06 06:37:18;;;;;;;10.27;7.70;;;20.60;99.90;;;;;;7348828;32;20122;-57
2023/06/06 06:41:20;;;;;;;8.82;6.90;;;21.50;99.90;;;;;;7335191;32;20099;-57
2023/06/06 06:45:23;;;;;;;10.50;7.32;;;21.90;99.90;;;;;;7342090;32;20126;-57
2023/06/06 06:49:26;;;;;;;11.80;7.72;;;22.40;99.90;;;;;;7346246;32;20104;-57
2023/06/06 06:53:30;;;;;;;10.75;7.57;;;22.30;99.90;;;;;;7342345;32;20226;-57
2023/06/06 06:57:32;;;;;;;11.85;7.37;;;22.10;99.90;;;;;;7337754;32;20104;-57
2023/06/06 07:01:37;;;;;;;10.35;6.95;;;21.80;99.90;;;;;;7342026;32;20133;-57
2023/06/06 07:05:39;;;;;;;10.60;7.15;;;22.20;99.90;;;;;;7340493;32;20293;-57
2023/06/06 07:09:43;;;;;;;10.85;7.32;;;22.40;99.90;;;;;;7336734;32;20108;-57
2023/06/06 07:13:45;;;;;;;12.68;7.55;;;22.30;99.90;;;;;;7341764;32;20107;-57
2023/06/06 07:17:49;;;;;;;13.80;7.35;;;21.40;99.90;;;;;;7345317;32;20135;-57
2023/06/06 07:21:52;;;;;;;14.48;8.32;;;21.60;99.90;;;;;;7340982;32;20100;-57
2023/06/06 07:25:54;;;;;;;10.00;6.87;;;21.50;99.90;;;;;;7340786;32;20111;-56
2023/06/06 07:29:56;;;;;;;13.02;8.10;;;21.80;99.90;;;;;;7338069;32;20743;-57
2023/06/06 07:33:59;;;;;;;12.50;8.02;;;21.60;99.90;;;;;;7341974;32;20634;-57
2023/06/06 07:38:02;;;;;;;12.13;8.05;;;21.30;99.90;;;;;;7343762;32;20482;-57
2023/06/06 07:42:07;;;;;;;17.37;12.10;;;21.40;99.90;;;;;;7338247;32;20142;-57
2023/06/06 07:46:08;;;;;;;14.68;10.63;;;21.60;99.90;;;;;;7338428;32;20295;-57
2023/06/06 07:50:11;;;;;;;11.82;8.88;;;20.90;99.90;;;;;;7335657;32;20102;-57
2023/06/06 07:54:12;;;;;;;13.80;8.27;;;19.80;99.90;;;;;;7327213;32;20241;-58
2023/06/06 07:58:15;;;;;;;13.70;8.30;;;20.20;99.90;;;;;;7341300;32;20231;-57
2023/06/06 08:02:17;;;;;;;13.55;8.15;;;20.70;99.90;;;;;;7341291;32;20119;-57
2023/06/06 08:06:19;;;;;;;17.55;8.88;;;21.20;99.90;;;;;;7342417;32;20146;-57
2023/06/06 08:10:21;;;;;;;11.65;8.68;;;21.70;99.90;;;;;;7333433;32;20170;-55
2023/06/06 08:14:23;;;;;;;13.80;8.10;;;21.30;99.90;;;;;;7338245;32;20299;-57
2023/06/06 08:18:24;;;;;;;15.63;8.32;;;22.20;99.90;;;;;;7337506;32;20108;-57
2023/06/06 08:22:27;;;;;;;15.88;7.85;;;22.70;99.90;;;;;;7343068;32;20704;-57
2023/06/06 08:26:29;;;;;;;12.23;8.43;;;23.20;99.90;;;;;;7335734;32;20179;-57
2023/06/06 08:30:31;;;;;;;11.12;7.20;;;23.20;99.90;;;;;;7340150;32;20677;-62
2023/06/06 08:34:33;;;;;;;15.02;7.90;;;23.40;99.90;;;;;;7335315;32;20119;-63
2023/06/06 08:38:35;;;;;;;18.12;7.78;;;24.00;99.90;;;;;;7336152;32;20890;-62
2023/06/06 08:42:42;;;;;;;10.23;7.70;;;24.20;99.90;;;;;;7338537;32;20167;-61
2023/06/06 08:46:45;;;;;;;;;;;24.10;99.90;;;;;;7335903;32;20458;-57
2023/06/06 08:50:48;;;;;;;12.27;6.53;;;24.20;99.90;;;;;;7341861;32;20028;-58
2023/06/06 08:54:50;;;;;;;11.98;7.00;;;24.30;99.90;;;;;;7342514;32;20126;-58
2023/06/06 08:58:53;;;;;;;13.48;7.05;;;24.20;99.90;;;;;;7337353;32;20175;-57
2023/06/06 09:02:56;;;;;;;14.18;7.65;;;24.20;99.90;;;;;;7330883;32;20122;-57
2023/06/06 09:07:04;;;;;;;10.45;7.35;;;24.00;99.90;;;;;;7330518;32;20108;-57
2023/06/06 09:11:06;;;;;;;13.85;7.55;;;23.90;99.90;;;;;;7306678;32;20442;-58
2023/06/06 09:15:09;;;;;;;12.55;7.03;;;24.30;99.90;;;;;;7335439;32;20318;-57
2023/06/06 09:19:11;;;;;;;11.68;6.93;;;24.70;99.90;;;;;;7332649;32;20299;-56
2023/06/06 09:23:14;;;;;;;9.20;7.15;;;24.70;99.90;;;;;;7335682;32;20232;-56
2023/06/06 09:27:30;;;;;;;14.23;6.62;;;24.60;99.90;;;;;;7332111;32;20127;-56
2023/06/06 09:31:37;;;;;;;9.77;6.18;;;24.60;99.90;;;;;;7332874;32;20138;-57
2023/06/06 09:35:43;;;;;;;12.02;7.45;;;24.70;99.90;;;;;;7334619;32;20131;-57
2023/06/06 09:39:45;;;;;;;12.32;6.15;;;24.80;99.90;;;;;;7332520;32;20107;-57
2023/06/06 09:43:47;;;;;;;12.27;5.55;;;24.80;99.90;;;;;;7322103;32;20816;-57
2023/06/06 09:47:49;;;;;;;9.07;5.22;;;25.10;99.90;;;;;;7325873;32;20226;-57
2023/06/06 09:51:55;;;;;;;9.40;5.15;;;25.60;99.90;;;;;;7326727;32;20251;-56
2023/06/06 09:56:02;;;;;;;9.43;5.22;;;26.20;99.90;;;;;;7327578;32;20150;-56
2023/06/06 10:00:15;;;;;;;7.20;4.65;;;26.50;99.20;;;;;;7320407;32;20150;-56
2023/06/06 10:04:17;;;;;;;9.80;5.10;;;26.80;99.50;;;;;;7334213;32;20119;-56
2023/06/06 10:08:21;;;;;;;9.57;5.50;;;26.70;99.90;;;;;;7333647;32;20197;-56
2023/06/06 10:12:23;;;;;;;7.93;5.25;;;26.60;97.60;;;;;;7331159;32;20258;-56
2023/06/06 10:16:27;;;;;;;9.02;5.75;;;26.90;98.40;;;;;;7325350;32;20189;-56
2023/06/06 10:20:32;;;;;;;9.00;4.62;;;27.00;95.80;;;;;;7332561;32;20203;-57
2023/06/06 10:24:34;;;;;;;12.65;5.87;;;26.70;95.50;;;;;;7328349;32;20246;-56
2023/06/06 10:28:49;;;;;;;8.45;5.22;;;26.90;96.00;;;;;;7336117;32;20494;-56
2023/06/06 10:33:18;;;;;;;10.27;4.50;;;27.10;93.20;;;;;;7336677;32;20249;-56
2023/06/06 10:37:25;;;;;;;8.77;4.65;;;27.10;95.90;;;;;;7333557;32;20111;-56
2023/06/06 10:41:41;;;;;;;14.98;5.62;;;26.60;94.00;;;;;;7328476;32;20215;-57
2023/06/06 10:45:45;;;;;;;13.30;4.50;;;26.80;94.90;;;;;;7327870;32;20909;-57
2023/06/06 10:50:21;;;;;;;6.70;4.15;;;27.40;93.20;;;;;;7336114;32;20256;-57
2023/06/06 10:54:27;;;;;;;12.23;4.07;;;27.40;93.30;;;;;;7316694;32;20516;-57
2023/06/06 10:58:35;;;;;;;9.48;5.80;;;27.80;92.60;;;;;;7336700;32;20107;-56
2023/06/06 11:02:39;;;;;;;10.43;4.28;;;27.10;91.60;;;;;;7328184;32;20112;-57
2023/06/06 11:06:42;;;;;;;7.53;3.97;;;27.60;91.20;;;;;;7333946;32;20234;-57
2023/06/06 11:10:47;;;;;;;9.65;4.30;;;27.80;90.50;;;;;;7335618;32;20216;-56
2023/06/06 11:15:01;;;;;;;7.75;3.72;;;27.70;90.40;;;;;;7333819;32;20133;-57
2023/06/06 11:19:08;;;;;;;8.85;3.60;;;27.80;91.30;;;;;;7331664;32;20496;-59
2023/06/06 11:23:11;;;;;;;8.45;4.22;;;27.30;90.80;;;;;;7333525;32;20124;-57
2023/06/06 11:27:15;;;;;;;7.97;4.05;;;27.40;91.40;;;;;;7328463;32;20264;-58
2023/06/06 11:31:20;;;;;;;9.27;3.85;;;27.40;90.50;;;;;;7329614;32;20130;-58
2023/06/06 11:35:23;;;;;;;7.82;3.95;;;27.60;85.90;;;;;;7335189;32;20095;-57
2023/06/06 11:39:27;;;;;;;9.13;4.20;;;27.70;86.20;;;;;;7335284;32;20188;-57
2023/06/06 11:43:29;;;;;;;6.70;3.78;;;27.60;85.20;;;;;;7331854;32;20099;-57
2023/06/06 11:47:33;;;;;;;9.32;4.57;;;27.90;83.80;;;;;;7341131;32;21983;-58
2023/06/06 11:51:36;;;;;;;6.47;3.58;;;28.10;82.80;;;;;;7340141;32;20129;-57
2023/06/06 11:55:38;;;;;;;9.23;3.87;;;28.00;85.60;;;;;;7336986;32;20138;-58
2023/06/06 11:59:40;;;;;;;6.28;3.55;;;28.00;82.50;;;;;;7339740;32;20192;-57
2023/06/06 12:03:43;;;;;;;5.78;3.20;;;28.60;79.60;;;;;;7338211;32;20127;-57
2023/06/06 12:07:46;;;;;;;7.30;3.37;;;28.80;82.40;;;;;;7340047;32;20187;-57
2023/06/06 12:12:01;;;;;;;6.65;3.47;;;28.30;75.00;;;;;;7332146;32;20254;-59
2023/06/06 12:16:03;;;;;;;5.87;3.10;;;28.40;76.60;;;;;;7333352;32;20216;-57
2023/06/06 12:20:05;;;;;;;4.65;3.30;;;29.50;71.20;;;;;;7337296;32;20207;-58
2023/06/06 12:24:17;;;;;;;5.07;3.10;;;29.90;69.30;;;;;;7333956;32;20245;-58
2023/06/06 12:28:20;;;;;;;2.87;2.12;;;30.30;62.20;;;;;;7333063;32;20138;-57
2023/06/06 12:32:26;;;;;;;9.32;1.90;;;29.60;56.80;;;;;;7330735;32;20487;-58
2023/06/06 12:36:28;;;;;;;;;;;29.40;54.20;;;;;;7332420;32;20122;-57
2023/06/06 12:40:37;;;;;;;7.05;2.42;;;29.60;55.90;;;;;;7333440;32;20024;-57
2023/06/06 12:44:39;;;;;;;3.58;2.12;;;28.60;54.50;;;;;;7334662;32;20242;-58
2023/06/06 12:48:40;;;;;;;6.03;2.50;;;29.20;53.80;;;;;;7332268;32;20106;-58
2023/06/06 12:52:42;;;;;;;4.10;2.10;;;29.50;51.50;;;;;;7332482;32;20454;-57
2023/06/06 12:56:44;;;;;;;3.20;1.85;;;29.40;53.00;;;;;;7333441;32;20206;-57
2023/06/06 13:00:46;;;;;;;4.05;2.00;;;28.50;53.60;;;;;;7333945;32;20156;-58
2023/06/06 13:04:48;;;;;;;4.07;2.20;;;28.00;51.60;;;;;;7336086;32;20130;-58
2023/06/06 13:08:49;;;;;;;4.12;2.22;;;28.40;55.00;;;;;;7338849;32;20108;-58
2023/06/06 13:12:51;;;;;;;3.25;2.25;;;29.20;55.40;;;;;;7332381;32;20123;-58
2023/06/06 13:16:53;;;;;;;5.35;2.03;;;28.60;51.90;;;;;;7337508;32;20137;-57
2023/06/06 13:21:13;;;;;;;4.62;2.60;;;29.20;52.10;;;;;;7330298;32;20389;-58
2023/06/06 13:25:15;;;;;;;4.07;2.50;;;28.00;54.00;;;;;;7330523;32;20238;-57
2023/06/06 13:29:17;;;;;;;5.05;2.92;;;28.10;58.50;;;;;;7340682;32;20559;-58
2023/06/06 13:33:19;;;;;;;4.35;2.42;;;27.90;56.60;;;;;;7335476;32;20115;-58
2023/06/06 13:37:21;;;;;;;4.12;2.47;;;28.60;58.90;;;;;;7332450;32;20852;-57
2023/06/06 13:41:23;;;;;;;7.32;2.80;;;27.90;58.20;;;;;;7342014;32;20167;-60
2023/06/06 13:45:26;;;;;;;10.00;2.95;;;28.40;56.30;;;;;;7342549;32;20348;-57
2023/06/06 13:49:29;;;;;;;6.12;2.53;;;28.80;58.70;;;;;;7342392;32;20751;-58
2023/06/06 13:53:30;;;;;;;4.05;2.50;;;27.90;53.80;;;;;;7341245;32;20407;-58
2023/06/06 13:57:39;;;;;;;6.25;2.87;;;27.60;54.70;;;;;;7343199;32;20118;-57
2023/06/06 14:01:46;;;;;;;6.05;2.70;;;27.10;55.60;;;;;;7338180;32;20126;-57
2023/06/06 14:05:48;;;;;;;;;;;27.10;57.10;;;;;;7337803;32;20247;-57
2023/06/06 14:09:49;;;;;;;5.35;2.37;;;26.40;56.70;;;;;;7339384;32;20304;-57
2023/06/06 14:13:51;;;;;;;5.70;2.67;;;26.40;59.50;;;;;;7329972;32;20179;-58
2023/06/06 14:17:53;;;;;;;5.20;2.62;;;25.80;59.30;;;;;;7329741;32;20260;-57
2023/06/06 14:22:09;;;;;;;8.30;2.97;;;25.60;61.50;;;;;;7337348;32;20225;-55
2023/06/06 14:26:12;;;;;;;9.57;5.60;;;25.30;61.40;;;;;;7334200;32;20153;-56
2023/06/06 14:30:14;;;;;;;4.82;2.47;;;25.10;59.90;;;;;;7338763;32;20248;-56
2023/06/06 14:34:15;;;;;;;7.82;2.80;;;24.70;61.10;;;;;;7337629;32;20262;-56
2023/06/06 14:38:17;;;;;;;6.53;2.50;;;24.50;61.50;;;;;;7336748;32;20112;-57
2023/06/06 14:42:19;;;;;;;5.22;2.50;;;24.40;63.10;;;;;;7333856;32;20115;-56
2023/06/06 14:46:21;;;;;;;4.82;2.67;;;24.40;61.30;;;;;;7332586;32;20258;-56
2023/06/06 14:50:23;;;;;;;5.70;3.25;;;24.80;60.40;;;;;;7338787;32;20115;-56
2023/06/06 14:54:24;;;;;;;6.87;2.92;;;25.30;59.20;;;;;;7337600;32;20521;-56
2023/06/06 14:58:26;;;;;;;8.00;2.70;;;25.60;59.90;;;;;;7336343;32;20107;-56
2023/06/06 15:02:28;;;;;;;6.60;2.75;;;25.50;57.20;;;;;;7336434;32;20099;-57
2023/06/06 15:06:30;;;;;;;5.32;2.90;;;25.70;59.20;;;;;;7336655;32;20103;-56
2023/06/06 15:10:32;;;;;;;7.62;2.40;;;25.90;59.70;;;;;;7338410;32;20168;-56
2023/06/06 15:14:33;;;;;;;7.35;2.85;;;26.30;61.30;;;;;;7339060;32;20229;-56
2023/06/06 15:18:36;;;;;;;3.72;2.10;;;26.40;59.20;;;;;;7337402;32;20683;-56
2023/06/06 15:22:38;;;;;;;5.00;2.60;;;25.40;60.40;;;;;;7337041;32;20103;-56
2023/06/06 15:26:39;;;;;;;6.37;2.55;;;25.30;61.10;;;;;;7333336;32;20112;-56
2023/06/06 15:30:44;;;;;;;3.08;2.50;;;24.80;63.80;;;;;;7341363;32;20147;-56
2023/06/06 15:34:45;;;;;;;5.37;2.80;;;24.40;64.20;;;;;;7331146;32;20222;-56
2023/06/06 15:38:47;;;;;;;4.53;2.58;;;24.30;64.90;;;;;;7333040;32;20207;-56
2023/06/06 15:42:50;;;;;;;8.23;2.55;;;24.20;64.90;;;;;;7337150;32;20119;-56
2023/06/06 15:46:51;;;;;;;8.57;2.60;;;23.90;65.60;;;;;;7338151;32;20277;-56
2023/06/06 15:50:53;;;;;;;5.00;2.60;;;23.90;67.80;;;;;;7336051;32;20107;-57
2023/06/06 15:54:55;;;;;;;10.60;2.80;;;23.90;68.60;;;;;;7340073;32;20162;-56
2023/06/06 15:58:59;;;;;;;8.05;3.20;;;23.70;68.00;;;;;;7340461;32;20164;-56
2023/06/06 16:03:01;;;;;;;5.72;3.30;;;23.40;69.80;;;;;;7335227;32;20596;-56
2023/06/06 16:07:03;;;;;;;3.83;2.67;;;23.50;70.70;;;;;;7335212;32;20499;-56
2023/06/06 16:11:04;;;;;;;3.90;2.67;;;23.50;71.90;;;;;;7335415;32;20253;-58
2023/06/06 16:15:08;;;;;;;6.78;2.75;;;23.80;74.10;;;;;;7336564;32;20183;-56
2023/06/06 16:19:10;;;;;;;4.07;2.58;;;23.90;73.10;;;;;;7337630;32;20140;-56
2023/06/06 16:23:11;;;;;;;5.25;2.90;;;23.90;74.40;;;;;;7333515;32;20103;-56
2023/06/06 16:27:14;;;;;;;6.90;2.97;;;23.80;73.80;;;;;;7332766;32;20230;-56
2023/06/06 16:31:16;;;;;;;4.68;2.50;;;23.80;72.00;;;;;;7333600;32;20123;-57
2023/06/06 16:35:17;;;;;;;5.32;2.45;;;23.80;70.60;;;;;;7336743;32;20172;-57
2023/06/06 16:39:19;;;;;;;5.72;2.53;;;23.70;67.40;;;;;;7336237;32;20292;-57
2023/06/06 16:43:21;;;;;;;4.72;2.60;;;23.50;67.40;;;;;;7332567;32;20232;-57
2023/06/06 16:47:22;;;;;;;6.37;2.40;;;23.50;68.00;;;;;;7338814;32;20155;-56
2023/06/06 16:51:24;;;;;;;5.93;2.72;;;23.60;68.70;;;;;;7333266;32;20212;-56
2023/06/06 16:55:26;;;;;;;3.62;2.15;;;23.60;68.40;;;;;;7331761;32;20107;-57
2023/06/06 16:59:29;;;;;;;15.80;12.37;;;23.60;66.30;;;;;;7333143;32;20099;-57
2023/06/06 17:03:31;;;;;;;3.78;2.15;;;23.60;68.50;;;;;;7331203;32;20107;-57
2023/06/06 17:07:33;;;;;;;5.37;2.40;;;23.50;68.20;;;;;;7335988;32;20457;-57
2023/06/06 17:11:35;;;;;;;5.28;2.80;;;23.50;69.90;;;;;;7337846;32;20236;-58
2023/06/06 17:15:38;;;;;;;4.60;2.50;;;23.60;68.90;;;;;;7335861;32;20249;-57
2023/06/06 17:19:40;;;;;;;3.90;2.80;;;23.80;69.60;;;;;;7343499;32;20202;-57
2023/06/06 17:23:44;;;;;;;5.15;2.58;;;23.90;67.20;;;;;;7345768;32;20408;-56
2023/06/06 17:27:46;;;;;;;4.93;2.80;;;23.90;68.10;;;;;;7343771;32;20181;-57
2023/06/06 17:31:48;;;;;;;8.50;2.42;;;23.90;69.20;;;;;;7345542;32;20107;-56
2023/06/06 17:35:50;;;;;;;5.45;2.22;;;24.00;66.90;;;;;;7335356;32;21113;-56
2023/06/06 17:39:51;;;;;;;6.25;2.28;;;24.00;65.50;;;;;;7341832;32;20115;-56
2023/06/06 17:43:56;;;;;;;6.10;2.50;;;24.00;63.20;;;;;;7345014;32;20491;-57
2023/06/06 17:47:58;;;;;;;4.95;2.37;;;23.60;62.80;;;;;;7340410;32;20864;-57
2023/06/06 17:52:03;;;;;;;8.65;6.25;;;23.40;64.50;;;;;;7344350;32;20125;-55
2023/06/06 17:56:06;;;;;;;3.80;2.60;;;23.30;64.40;;;;;;7333705;32;20302;-55
2023/06/06 18:00:09;;;;;;;5.53;2.75;;;23.10;65.90;;;;;;7337312;32;20133;-55
2023/06/06 18:04:13;;;;;;;3.42;2.28;;;23.00;66.20;;;;;;7340392;32;20194;-56
2023/06/06 18:08:15;;;;;;;7.70;2.40;;;22.70;67.10;;;;;;7340695;32;20103;-56
2023/06/06 18:12:17;;;;;;;3.42;2.53;;;22.60;66.50;;;;;;7339439;32;20247;-56
2023/06/06 18:16:19;;;;;;;4.45;2.55;;;22.50;68.20;;;;;;7339158;32;20208;-57
2023/06/06 18:20:21;;;;;;;5.80;2.20;;;22.30;68.50;;;;;;7335041;32;20274;-57
2023/06/06 18:24:22;;;;;;;4.55;2.17;;;22.20;69.90;;;;;;7336140;32;20205;-57
2023/06/06 18:28:24;;;;;;;3.47;2.22;;;22.10;71.20;;;;;;7337538;32;20321;-57
2023/06/06 18:32:26;;;;;;;6.45;2.37;;;22.10;71.80;;;;;;7330459;32;20175;-57
2023/06/06 18:36:28;;;;;;;4.60;2.50;;;22.00;73.20;;;;;;7342329;32;20137;-57
2023/06/06 18:40:30;;;;;;;4.75;2.37;;;21.90;73.80;;;;;;7338587;32;20918;-57
2023/06/06 18:44:32;;;;;;;4.75;2.75;;;22.10;75.50;;;;;;7335050;32;20106;-55
2023/06/06 18:48:33;;;;;;;3.12;2.50;;;21.90;75.40;;;;;;7339450;32;20579;-56
2023/06/06 18:52:36;;;;;;;3.83;2.47;;;21.90;76.40;;;;;;7338021;32;20243;-55
2023/06/06 18:56:38;;;;;;;5.32;2.30;;;21.90;77.30;;;;;;7336405;32;20108;-57
2023/06/06 19:00:40;;;;;;;5.50;2.20;;;21.70;78.10;;;;;;7336634;32;20600;-56
2023/06/06 19:04:42;;;;;;;4.40;2.80;;;21.70;80.30;;;;;;7338727;32;20230;-55
2023/06/06 19:08:44;;;;;;;6.50;2.85;;;21.50;81.80;;;;;;7332069;32;20516;-55
2023/06/06 19:12:46;;;;;;;7.10;3.35;;;21.50;83.40;;;;;;7335394;32;20185;-56
2023/06/06 19:16:50;;;;;;;4.10;2.80;;;21.20;84.70;;;;;;7338921;32;20186;-54
2023/06/06 19:20:52;;;;;;;8.88;5.87;;;21.20;85.10;;;;;;7341030;32;20334;-56
2023/06/06 19:24:54;;;;;;;6.37;2.70;;;21.10;86.60;;;;;;7339431;32;20146;-56
2023/06/06 19:28:55;;;;;;;7.62;3.05;;;21.10;86.50;;;;;;7339924;32;20139;-56
2023/06/06 19:32:58;;;;;;;5.12;2.92;;;21.00;88.00;;;;;;7338420;32;20502;-55
2023/06/06 19:37:00;;;;;;;6.05;2.80;;;20.90;90.00;;;;;;7337277;32;20614;-55
2023/06/06 19:41:02;;;;;;;4.05;2.83;;;20.70;91.00;;;;;;7339970;32;20134;-55
2023/06/06 19:45:04;;;;;;;6.85;3.25;;;20.60;92.20;;;;;;7337244;32;20111;-55
2023/06/06 19:49:08;;;;;;;7.95;2.75;;;20.40;93.40;;;;;;7335035;32;20131;-56
2023/06/06 19:53:10;;;;;;;7.68;3.10;;;20.30;95.10;;;;;;7337250;32;20197;-56
2023/06/06 19:57:12;;;;;;;7.37;3.08;;;20.20;98.90;;;;;;7337845;32;20103;-55
2023/06/06 20:01:14;;;;;;;5.28;2.85;;;20.00;99.90;;;;;;7336357;32;20285;-56
2023/06/06 20:05:16;;;;;;;9.80;2.97;;;19.90;99.90;;;;;;7335408;32;20190;-56
2023/06/06 20:09:18;;;;;;;4.40;2.50;;;19.70;99.90;;;;;;7334228;32;20186;-56
2023/06/06 20:13:20;;;;;;;6.70;3.35;;;19.50;99.90;;;;;;7336177;32;20107;-55
2023/06/06 20:17:22;;;;;;;6.18;2.67;;;19.40;99.90;;;;;;7329409;32;20254;-56
2023/06/06 20:21:24;;;;;;;6.55;3.45;;;19.40;99.90;;;;;;7328725;32;20710;-55
2023/06/06 20:25:25;;;;;;;4.40;2.95;;;19.20;99.90;;;;;;7339648;32;20131;-56
2023/06/06 20:29:27;;;;;;;6.35;3.10;;;19.00;99.90;;;;;;7337891;32;20698;-55
2023/06/06 20:33:29;;;;;;;7.03;3.28;;;18.90;99.90;;;;;;7337817;32;20219;-55
2023/06/06 20:37:31;;;;;;;5.30;2.97;;;18.80;99.90;;;;;;7333999;32;20359;-55
2023/06/06 20:41:33;;;;;;;6.78;3.15;;;18.70;99.90;;;;;;7340716;32;20166;-55
2023/06/06 20:45:35;;;;;;;6.57;3.40;;;18.60;99.90;;;;;;7336352;32;20400;-55
2023/06/06 20:49:36;;;;;;;3.70;3.15;;;18.50;99.90;;;;;;7334616;32;20129;-55
2023/06/06 20:53:39;;;;;;;9.25;3.47;;;18.30;99.90;;;;;;7335318;32;20298;-55
2023/06/06 20:57:41;;;;;;;14.52;3.72;;;18.20;99.90;;;;;;7334605;32;20143;-55
2023/06/06 21:01:43;;;;;;;5.18;3.53;;;18.10;99.90;;;;;;7334460;32;20216;-55